Time;durP1;ratioP1;P1;durP2;ratioP2;P2;SDS_P1;SDS_P2;PMS_P1;PMS_P2;Temp;Humidity;BMP_temperature;BMP_pressure;BME280_temperature;BME280_humidity;BME280_pressure;Samples;Min_cycle;Max_cycle;Signal;HPM_P1;HPM_P2
2022/07/10 00:00:26;;;;;;;5.82;2.50;;;;;;;;;;2072640;28;20184;-55
2022/07/10 00:01:26;;;;;;;5.47;2.60;;;;;;;;;;2072218;28;20177;-58
2022/07/10 00:02:26;;;;;;;5.35;2.60;;;;;;;;;;2071897;28;20217;-57
2022/07/10 00:03:27;;;;;;;4.72;2.25;;;;;;;;;;2072995;28;20171;-55
2022/07/10 00:04:27;;;;;;;5.63;2.30;;;;;;;;;;2071591;28;20712;-53
2022/07/10 00:05:28;;;;;;;5.93;2.55;;;;;;;;;;2072801;28;20161;-58
2022/07/10 00:06:28;;;;;;;6.43;2.08;;;;;;;;;;2063841;28;20617;-56
2022/07/10 00:07:29;;;;;;;3.72;2.00;;;;;;;;;;2063787;28;20170;-57
2022/07/10 00:08:29;;;;;;;3.97;2.10;;;;;;;;;;2071725;28;20220;-57
2022/07/10 00:09:29;;;;;;;6.07;2.38;;;;;;;;;;2072055;28;20217;-55
2022/07/10 00:10:30;;;;;;;5.47;2.03;;;;;;;;;;2073053;28;20192;-55
2022/07/10 00:11:30;;;;;;;3.28;2.10;;;;;;;;;;2072471;28;20162;-57
2022/07/10 00:12:31;;;;;;;4.57;1.90;;;;;;;;;;2072285;28;20173;-57
2022/07/10 00:13:31;;;;;;;8.85;2.03;;;;;;;;;;2072912;28;20183;-58
2022/07/10 00:14:32;;;;;;;7.40;2.72;;;;;;;;;;2073337;28;20161;-55
2022/07/10 00:15:32;;;;;;;3.83;2.10;;;;;;;;;;2073953;28;20185;-56
2022/07/10 00:16:33;;;;;;;7.47;2.75;;;;;;;;;;2074260;28;20173;-55
2022/07/10 00:17:33;;;;;;;4.82;2.22;;;;;;;;;;2073745;28;20192;-56
2022/07/10 00:18:34;;;;;;;5.03;2.75;;;;;;;;;;2073964;28;20331;-53
2022/07/10 00:19:34;;;;;;;7.35;3.08;;;;;;;;;;2073851;28;20237;-53
2022/07/10 00:20:35;;;;;;;7.03;2.45;;;;;;;;;;2073824;28;20196;-55
2022/07/10 00:21:35;;;;;;;11.50;7.18;;;;;;;;;;2074019;28;20208;-57
2022/07/10 00:22:37;;;;;;;7.13;2.45;;;;;;;;;;2073863;28;20173;-57
2022/07/10 00:23:37;;;;;;;6.57;2.50;;;;;;;;;;2073939;28;20180;-57
2022/07/10 00:24:38;;;;;;;6.70;2.72;;;;;;;;;;2073031;28;20236;-53
2022/07/10 00:25:38;;;;;;;8.90;4.30;;;;;;;;;;2073850;28;20651;-55
2022/07/10 00:26:39;;;;;;;3.95;2.20;;;;;;;;;;2073877;28;20173;-55
2022/07/10 00:27:40;;;;;;;4.88;3.80;;;;;;;;;;2073958;28;20223;-56
2022/07/10 00:28:41;;;;;;;7.68;3.40;;;;;;;;;;2073719;28;20173;-54
2022/07/10 00:29:41;;;;;;;5.95;2.58;;;;;;;;;;2073783;28;20549;-56
2022/07/10 00:30:42;;;;;;;4.82;2.25;;;;;;;;;;2073613;28;20173;-56
2022/07/10 00:31:42;;;;;;;7.00;2.70;;;;;;;;;;2073694;28;20195;-57
2022/07/10 00:32:42;;;;;;;4.50;2.40;;;;;;;;;;2073853;28;20634;-58
2022/07/10 00:33:43;;;;;;;5.97;2.75;;;;;;;;;;2073726;28;20188;-56
2022/07/10 00:34:43;;;;;;;4.63;2.15;;;;;;;;;;2073287;28;20177;-56
2022/07/10 00:35:43;;;;;;;7.30;2.10;;;;;;;;;;2073896;28;20164;-54
2022/07/10 00:36:44;;;;;;;5.57;2.15;;;;;;;;;;2073795;28;20172;-52
2022/07/10 00:37:44;;;;;;;8.80;2.30;;;;;;;;;;2073634;28;20281;-55
2022/07/10 00:38:45;;;;;;;5.68;2.25;;;;;;;;;;2073547;28;20174;-55
2022/07/10 00:39:46;;;;;;;6.00;2.50;;;;;;;;;;2073696;28;20626;-52
2022/07/10 00:40:46;;;;;;;4.63;2.25;;;;;;;;;;2073854;28;20227;-57
2022/07/10 00:41:46;;;;;;;4.03;2.30;;;;;;;;;;2073874;28;20242;-52
2022/07/10 00:42:47;;;;;;;5.10;2.42;;;;;;;;;;2073802;28;20177;-54
2022/07/10 00:43:51;;;;;;;2.70;2.40;;;;;;;;;;2073725;28;20165;-55
2022/07/10 00:44:51;;;;;;;3.85;1.90;;;;;;;;;;2072617;28;20209;-56
2022/07/10 00:45:52;;;;;;;4.20;2.13;;;;;;;;;;2073010;28;20219;-56
2022/07/10 00:46:52;;;;;;;4.55;2.22;;;;;;;;;;2073674;28;20218;-51
2022/07/10 00:47:52;;;;;;;4.45;2.45;;;;;;;;;;2073906;28;20184;-57
2022/07/10 00:48:53;;;;;;;4.40;2.15;;;;;;;;;;2072780;28;20220;-55
2022/07/10 00:49:54;;;;;;;7.38;2.95;;;;;;;;;;2071792;28;20201;-54
2022/07/10 00:50:54;;;;;;;6.00;2.33;;;;;;;;;;2065804;28;20186;-56
2022/07/10 00:51:54;;;;;;;6.93;2.42;;;;;;;;;;2065049;28;20573;-55
2022/07/10 00:52:55;;;;;;;5.07;2.42;;;;;;;;;;2064871;28;20181;-58
2022/07/10 00:53:56;;;;;;;4.63;1.92;;;;;;;;;;2065343;28;20176;-57
2022/07/10 00:54:56;;;;;;;3.25;2.20;;;;;;;;;;2064068;28;20203;-56
2022/07/10 00:55:57;;;;;;;6.53;2.50;;;;;;;;;;2056874;28;20171;-56
2022/07/10 00:56:57;;;;;;;6.32;2.33;;;;;;;;;;2071698;28;20188;-52
2022/07/10 00:57:58;;;;;;;6.95;2.78;;;;;;;;;;2073607;28;20169;-55
2022/07/10 00:58:58;;;;;;;4.80;2.10;;;;;;;;;;2073664;28;20672;-53
2022/07/10 00:59:59;;;;;;;4.40;2.53;;;;;;;;;;2073735;28;20221;-54
2022/07/10 01:00:59;;;;;;;7.88;2.38;;;;;;;;;;2073727;28;20509;-57
2022/07/10 01:02:01;;;;;;;4.63;2.22;;;;;;;;;;2073615;28;20193;-57
2022/07/10 01:03:03;;;;;;;7.13;2.20;;;;;;;;;;2073415;28;20638;-55
2022/07/10 01:04:04;;;;;;;6.03;2.50;;;;;;;;;;2071901;28;20268;-56
2022/07/10 01:05:04;;;;;;;10.52;2.60;;;;;;;;;;2073017;28;20173;-58
2022/07/10 01:06:05;;;;;;;4.40;2.47;;;;;;;;;;2073712;28;20322;-54
2022/07/10 01:07:05;;;;;;;6.00;2.67;;;;;;;;;;2073444;28;20183;-55
2022/07/10 01:08:06;;;;;;;5.20;2.15;;;;;;;;;;2073644;28;20165;-57
2022/07/10 01:09:06;;;;;;;6.50;2.65;;;;;;;;;;2073705;28;20197;-57
2022/07/10 01:10:07;;;;;;;5.10;2.30;;;;;;;;;;2074037;28;20630;-55
2022/07/10 01:11:07;;;;;;;9.20;2.75;;;;;;;;;;2073433;28;20265;-56
2022/07/10 01:12:08;;;;;;;9.43;2.83;;;;;;;;;;2073831;28;20517;-53
2022/07/10 01:13:08;;;;;;;5.05;2.50;;;;;;;;;;2073742;28;20161;-56
2022/07/10 01:14:09;;;;;;;4.78;2.25;;;;;;;;;;2072898;28;20239;-53
2022/07/10 01:15:10;;;;;;;6.03;2.22;;;;;;;;;;2074269;28;20185;-56
2022/07/10 01:16:11;;;;;;;5.38;2.45;;;;;;;;;;2075121;28;20158;-53
2022/07/10 01:17:13;;;;;;;6.35;2.15;;;;;;;;;;2082202;28;20164;-54
2022/07/10 01:18:13;;;;;;;4.55;2.42;;;;;;;;;;2082496;28;20192;-53
2022/07/10 01:19:14;;;;;;;3.60;2.53;;;;;;;;;;2074962;28;20748;-53
2022/07/10 01:20:14;;;;;;;6.15;2.22;;;;;;;;;;2074677;28;20169;-55
2022/07/10 01:21:25;;;;;;;4.97;2.42;;;;;;;;;;2075017;28;20165;-55
2022/07/10 01:22:25;;;;;;;4.00;2.05;;;;;;;;;;2074871;28;20173;-55
2022/07/10 01:23:26;;;;;;;4.10;1.88;;;;;;;;;;2074702;28;20656;-55
2022/07/10 01:24:26;;;;;;;3.63;2.10;;;;;;;;;;2072814;28;20189;-54
2022/07/10 01:25:26;;;;;;;3.80;2.40;;;;;;;;;;2073280;28;20569;-52
2022/07/10 01:26:27;;;;;;;6.05;2.53;;;;;;;;;;2074681;28;20665;-55
2022/07/10 01:27:27;;;;;;;5.13;2.60;;;;;;;;;;2074751;28;20646;-54
2022/07/10 01:28:29;;;;;;;4.13;2.47;;;;;;;;;;2074444;28;20180;-55
2022/07/10 01:29:29;;;;;;;5.05;2.42;;;;;;;;;;2074619;28;20717;-55
2022/07/10 01:30:29;;;;;;;4.53;2.60;;;;;;;;;;2073998;28;20168;-56
2022/07/10 01:31:30;;;;;;;4.57;2.45;;;;;;;;;;2073561;28;20664;-56
2022/07/10 01:32:37;;;;;;;7.22;2.80;;;;;;;;;;2073650;28;20173;-51
2022/07/10 01:33:37;;;;;;;6.80;2.47;;;;;;;;;;2073028;28;20177;-57
2022/07/10 01:34:38;;;;;;;3.58;2.40;;;;;;;;;;2072189;28;20169;-57
2022/07/10 01:35:38;;;;;;;2.33;2.13;;;;;;;;;;2072790;28;20212;-56
2022/07/10 01:36:39;;;;;;;8.57;2.40;;;;;;;;;;2072733;28;20181;-55
2022/07/10 01:37:40;;;;;;;5.07;2.53;;;;;;;;;;2073388;28;20617;-56
2022/07/10 01:38:40;;;;;;;5.82;2.63;;;;;;;;;;2073278;28;20642;-56
2022/07/10 01:39:41;;;;;;;4.63;2.03;;;;;;;;;;2073463;28;20204;-57
2022/07/10 01:40:41;;;;;;;5.78;2.50;;;;;;;;;;2073290;28;20192;-57
2022/07/10 01:41:41;;;;;;;4.28;2.17;;;;;;;;;;2073386;28;20176;-55
2022/07/10 01:42:43;;;;;;;5.28;2.50;;;;;;;;;;2073279;28;20576;-58
2022/07/10 01:43:44;;;;;;;2.88;1.88;;;;;;;;;;2073304;28;20200;-54
2022/07/10 01:44:45;;;;;;;7.88;2.92;;;;;;;;;;2072412;28;20184;-53
2022/07/10 01:45:45;;;;;;;7.22;2.38;;;;;;;;;;2072764;28;20177;-57
2022/07/10 01:46:46;;;;;;;2.97;1.83;;;;;;;;;;2072777;28;20165;-56
2022/07/10 01:47:46;;;;;;;3.75;2.00;;;;;;;;;;2073343;28;20173;-62
2022/07/10 01:48:47;;;;;;;4.60;2.47;;;;;;;;;;2072744;28;20218;-55
2022/07/10 01:49:47;;;;;;;7.32;2.10;;;;;;;;;;2070952;28;20832;-57
2022/07/10 01:50:48;;;;;;;2.20;1.90;;;;;;;;;;2073258;28;20817;-57
2022/07/10 01:51:48;;;;;;;7.50;2.40;;;;;;;;;;2073648;28;20188;-51
2022/07/10 01:52:49;;;;;;;8.18;2.45;;;;;;;;;;2073285;28;20185;-56
2022/07/10 01:53:49;;;;;;;4.90;2.78;;;;;;;;;;2073306;28;20311;-53
2022/07/10 01:54:49;;;;;;;3.45;1.90;;;;;;;;;;2072306;28;20177;-56
2022/07/10 01:55:50;;;;;;;4.57;2.28;;;;;;;;;;2073326;28;20184;-55
2022/07/10 01:56:50;;;;;;;4.85;2.53;;;;;;;;;;2073142;28;20190;-57
2022/07/10 01:57:54;;;;;;;4.75;2.60;;;;;;;;;;2072605;28;20624;-55
2022/07/10 01:58:54;;;;;;;6.53;2.63;;;;;;;;;;2072481;28;20270;-55
2022/07/10 01:59:54;;;;;;;8.02;2.80;;;;;;;;;;2073200;28;20184;-53
2022/07/10 02:00:55;;;;;;;6.20;2.53;;;;;;;;;;2073192;28;20287;-57
2022/07/10 02:01:55;;;;;;;6.07;2.47;;;;;;;;;;2073207;28;20192;-58
2022/07/10 02:05:33;;;;;;;4.80;2.25;;;;;;;;;;2072954;28;20634;-55
2022/07/10 02:06:34;;;;;;;2.38;1.92;;;;;;;;;;2072962;28;20173;-56
2022/07/10 02:07:34;;;;;;;7.03;2.30;;;;;;;;;;2072641;28;20173;-57
2022/07/10 02:08:34;;;;;;;3.85;2.05;;;;;;;;;;2073231;28;20165;-55
2022/07/10 02:09:35;;;;;;;5.78;2.22;;;;;;;;;;2073189;28;20165;-52
2022/07/10 02:10:35;;;;;;;5.07;2.38;;;;;;;;;;2073140;28;20177;-55
2022/07/10 02:11:36;;;;;;;4.90;2.03;;;;;;;;;;2072994;28;20214;-55
2022/07/10 02:12:36;;;;;;;6.55;2.55;;;;;;;;;;2073160;28;20303;-59
2022/07/10 02:13:36;;;;;;;7.03;2.60;;;;;;;;;;2072951;28;20168;-54
2022/07/10 02:14:37;;;;;;;5.18;2.50;;;;;;;;;;2072380;28;20169;-55
2022/07/10 02:15:37;;;;;;;7.88;2.20;;;;;;;;;;2072174;28;20221;-56
2022/07/10 02:16:38;;;;;;;6.07;2.22;;;;;;;;;;2072393;28;20628;-54
2022/07/10 02:17:38;;;;;;;9.68;2.80;;;;;;;;;;2072935;28;20205;-55
2022/07/10 02:18:39;;;;;;;6.45;2.38;;;;;;;;;;2073072;28;20643;-58
2022/07/10 02:19:39;;;;;;;4.25;2.20;;;;;;;;;;2072934;28;20219;-55
2022/07/10 02:20:39;;;;;;;4.65;2.45;;;;;;;;;;2073088;28;20181;-53
2022/07/10 02:21:40;;;;;;;7.88;2.58;;;;;;;;;;2073058;28;20197;-54
2022/07/10 02:22:40;;;;;;;5.45;2.25;;;;;;;;;;2072951;28;20596;-54
2022/07/10 02:23:41;;;;;;;6.53;2.00;;;;;;;;;;2073116;28;20506;-54
2022/07/10 02:24:41;;;;;;;5.80;2.17;;;;;;;;;;2071986;28;20212;-54
2022/07/10 02:25:41;;;;;;;6.95;2.45;;;;;;;;;;2073124;28;20556;-56
2022/07/10 02:26:42;;;;;;;6.43;2.45;;;;;;;;;;2072814;28;20223;-56
2022/07/10 02:27:42;;;;;;;5.90;2.63;;;;;;;;;;2073061;28;20515;-55
2022/07/10 02:28:42;;;;;;;6.53;2.70;;;;;;;;;;2072698;28;20247;-56
2022/07/10 02:29:43;;;;;;;5.47;3.25;;;;;;;;;;2072953;28;20169;-56
2022/07/10 02:30:43;;;;;;;4.82;2.20;;;;;;;;;;2072879;28;20172;-56
2022/07/10 02:31:43;;;;;;;5.43;2.50;;;;;;;;;;2072892;28;20256;-58
2022/07/10 02:32:44;;;;;;;4.93;2.45;;;;;;;;;;2072701;28;20173;-56
2022/07/10 02:33:44;;;;;;;7.70;2.50;;;;;;;;;;2072846;28;20196;-53
2022/07/10 02:34:44;;;;;;;4.53;2.05;;;;;;;;;;2071325;28;20180;-56
2022/07/10 02:35:45;;;;;;;3.47;2.47;;;;;;;;;;2072319;28;20179;-56
2022/07/10 02:36:45;;;;;;;7.53;2.33;;;;;;;;;;2072451;28;20173;-57
2022/07/10 02:37:46;;;;;;;7.57;2.60;;;;;;;;;;2072736;28;20192;-58
2022/07/10 02:38:46;;;;;;;8.15;2.70;;;;;;;;;;2072673;28;20590;-57
2022/07/10 02:39:46;;;;;;;4.47;2.42;;;;;;;;;;2072903;28;20219;-56
2022/07/10 02:40:47;;;;;;;5.38;2.75;;;;;;;;;;2072694;28;20173;-55
2022/07/10 02:41:49;;;;;;;2.83;2.35;;;;;;;;;;2080669;28;20188;-52
2022/07/10 02:42:49;;;;;;;4.05;2.10;;;;;;;;;;2080347;28;20201;-56
2022/07/10 02:43:50;;;;;;;5.03;1.98;;;;;;;;;;2072917;28;20567;-56
2022/07/10 02:44:50;;;;;;;6.13;2.45;;;;;;;;;;2071784;28;20204;-56
2022/07/10 02:45:50;;;;;;;4.78;2.58;;;;;;;;;;2071985;28;20504;-53
2022/07/10 02:46:51;;;;;;;5.55;2.65;;;;;;;;;;2072080;28;20169;-54
2022/07/10 02:47:51;;;;;;;8.27;2.40;;;;;;;;;;2072748;28;20649;-55
2022/07/10 02:48:51;;;;;;;5.15;2.60;;;;;;;;;;2072577;28;20562;-56
2022/07/10 02:49:52;;;;;;;3.90;2.50;;;;;;;;;;2072067;28;20562;-57
2022/07/10 02:50:52;;;;;;;5.85;2.65;;;;;;;;;;2072089;28;20224;-57
2022/07/10 02:51:53;;;;;;;7.38;2.90;;;;;;;;;;2072765;28;20177;-55
2022/07/10 02:52:53;;;;;;;6.38;2.47;;;;;;;;;;2072101;28;20168;-56
2022/07/10 02:53:54;;;;;;;6.70;2.45;;;;;;;;;;2071718;28;20185;-55
2022/07/10 02:54:54;;;;;;;5.57;2.63;;;;;;;;;;2071507;28;20724;-51
2022/07/10 02:55:54;;;;;;;5.95;2.15;;;;;;;;;;2071998;28;20200;-56
2022/07/10 02:56:55;;;;;;;7.90;2.90;;;;;;;;;;2072891;28;20176;-57
2022/07/10 02:57:55;;;;;;;3.40;2.33;;;;;;;;;;2072833;28;20532;-54
2022/07/10 02:58:56;;;;;;;5.75;2.45;;;;;;;;;;2072727;28;20200;-55
2022/07/10 02:59:56;;;;;;;7.13;2.50;;;;;;;;;;2072623;28;20169;-55
2022/07/10 03:00:56;;;;;;;8.30;2.90;;;;;;;;;;2072724;28;20235;-52
2022/07/10 03:01:57;;;;;;;3.53;2.30;;;;;;;;;;2072804;28;20184;-58
2022/07/10 03:02:57;;;;;;;5.07;2.15;;;;;;;;;;2080327;28;20557;-57
2022/07/10 03:03:58;;;;;;;7.32;2.67;;;;;;;;;;2071614;28;20185;-51
2022/07/10 03:04:58;;;;;;;5.32;2.38;;;;;;;;;;2071916;28;20203;-57
2022/07/10 03:05:59;;;;;;;6.97;2.28;;;;;;;;;;2072630;28;20220;-53
2022/07/10 03:06:59;;;;;;;5.07;2.28;;;;;;;;;;2072682;28;20237;-55
2022/07/10 03:07:59;;;;;;;6.55;2.60;;;;;;;;;;2080041;28;20168;-56
2022/07/10 03:08:59;;;;;;;2.97;2.20;;;;;;;;;;2080337;28;20238;-57
2022/07/10 03:10:00;;;;;;;7.63;2.70;;;;;;;;;;2072744;28;20271;-57
2022/07/10 03:11:00;;;;;;;4.82;2.38;;;;;;;;;;2080294;28;20216;-54
2022/07/10 03:12:00;;;;;;;5.88;2.50;;;;;;;;;;2080100;28;20315;-57
2022/07/10 03:13:01;;;;;;;4.95;2.30;;;;;;;;;;2072708;28;20187;-55
2022/07/10 03:14:01;;;;;;;6.00;2.13;;;;;;;;;;2071662;28;20181;-54
2022/07/10 03:15:02;;;;;;;5.18;2.63;;;;;;;;;;2072602;28;20197;-56
2022/07/10 03:16:02;;;;;;;4.97;2.47;;;;;;;;;;2071959;28;20189;-55
2022/07/10 03:17:03;;;;;;;3.35;2.22;;;;;;;;;;2072129;28;20184;-56
2022/07/10 03:18:03;;;;;;;4.43;2.28;;;;;;;;;;2072467;28;20180;-56
2022/07/10 03:19:03;;;;;;;4.50;2.58;;;;;;;;;;2072662;28;20188;-53
2022/07/10 03:20:04;;;;;;;3.90;2.20;;;;;;;;;;2071933;28;20173;-59
2022/07/10 03:21:04;;;;;;;7.90;2.55;;;;;;;;;;2072189;28;20177;-55
2022/07/10 03:22:05;;;;;;;7.10;2.60;;;;;;;;;;2072593;28;20623;-55
2022/07/10 03:23:05;;;;;;;6.38;2.63;;;;;;;;;;2072801;28;20180;-57
2022/07/10 03:24:06;;;;;;;8.63;2.47;;;;;;;;;;2071895;28;20173;-56
2022/07/10 03:25:06;;;;;;;5.15;2.00;;;;;;;;;;2072638;28;20196;-54
2022/07/10 03:26:07;;;;;;;7.00;2.60;;;;;;;;;;2072763;28;20180;-57
2022/07/10 03:27:08;;;;;;;5.57;2.38;;;;;;;;;;2072627;28;20176;-55
2022/07/10 03:28:08;;;;;;;5.60;2.45;;;;;;;;;;2072461;28;20207;-54
2022/07/10 03:30:19;;;;;;;7.70;2.22;;;;;;;;;;2044718;28;20204;-52
2022/07/10 03:31:20;;;;;;;6.90;2.40;;;;;;;;;;2047181;28;20178;-52
2022/07/10 03:32:20;;;;;;;7.82;2.47;;;;;;;;;;2048021;29;20171;-54
2022/07/10 03:33:20;;;;;;;3.60;2.22;;;;;;;;;;2048944;29;20707;-52
2022/07/10 03:34:21;;;;;;;8.20;2.78;;;;;;;;;;2046940;28;20179;-55
2022/07/10 03:35:21;;;;;;;4.93;2.30;;;;;;;;;;2048793;28;20179;-57
2022/07/10 03:36:21;;;;;;;5.45;2.58;;;;;;;;;;2049217;28;20160;-55
2022/07/10 03:37:22;;;;;;;5.63;2.42;;;;;;;;;;2049698;29;20652;-53
2022/07/10 03:38:22;;;;;;;3.28;1.98;;;;;;;;;;2047684;29;20206;-51
2022/07/10 03:39:22;;;;;;;4.63;2.35;;;;;;;;;;2048213;28;20249;-53
2022/07/10 03:40:23;;;;;;;5.72;2.20;;;;;;;;;;2048378;29;20202;-52
2022/07/10 03:41:24;;;;;;;6.63;2.13;;;;;;;;;;2048346;29;20174;-54
2022/07/10 03:42:24;;;;;;;5.90;2.30;;;;;;;;;;2048444;29;20222;-52
2022/07/10 03:43:24;;;;;;;6.47;2.75;;;;;;;;;;2048478;29;20163;-50
2022/07/10 03:44:25;;;;;;;6.32;2.05;;;;;;;;;;2047536;29;20170;-54
2022/07/10 03:45:25;;;;;;;9.38;2.58;;;;;;;;;;2048496;29;20692;-53
2022/07/10 03:46:25;;;;;;;5.03;2.47;;;;;;;;;;2047862;29;20262;-56
2022/07/10 03:47:26;;;;;;;6.45;2.72;;;;;;;;;;2046623;28;20613;-55
2022/07/10 03:48:26;;;;;;;4.20;2.40;;;;;;;;;;2048984;29;20632;-53
2022/07/10 03:49:26;;;;;;;5.63;2.30;;;;;;;;;;2050249;28;20262;-53
2022/07/10 03:50:27;;;;;;;6.13;2.65;;;;;;;;;;2043639;28;20172;-53
2022/07/10 03:51:27;;;;;;;4.78;2.08;;;;;;;;;;2041804;29;20175;-53
2022/07/10 03:52:27;;;;;;;6.13;2.95;;;;;;;;;;2042096;29;20557;-53
2022/07/10 03:53:28;;;;;;;6.35;2.88;;;;;;;;;;2042396;29;20272;-54
2022/07/10 03:54:29;;;;;;;5.40;2.50;;;;;;;;;;2041452;29;20222;-57
2022/07/10 03:55:29;;;;;;;7.38;2.70;;;;;;;;;;2042330;29;20172;-51
2022/07/10 03:57:55;;;;;;;5.82;2.40;;;;;;;;;;2042434;29;20167;-55
2022/07/10 03:58:55;;;;;;;4.43;2.08;;;;;;;;;;2042081;29;20168;-53
2022/07/10 03:59:56;;;;;;;5.70;2.50;;;;;;;;;;2042487;29;20251;-54
2022/07/10 04:00:56;;;;;;;8.48;2.60;;;;;;;;;;2041700;29;20284;-51
2022/07/10 04:01:56;;;;;;;6.10;3.17;;;;;;;;;;2041539;29;20610;-53
2022/07/10 04:02:58;;;;;;;4.68;2.70;;;;;;;;;;2042134;29;20258;-55
2022/07/10 04:03:58;;;;;;;6.57;2.47;;;;;;;;;;2040862;29;20179;-53
2022/07/10 04:04:58;;;;;;;6.47;2.58;;;;;;;;;;2041565;29;20191;-53
2022/07/10 04:05:59;;;;;;;2.90;1.92;;;;;;;;;;2041433;29;20175;-56
2022/07/10 04:06:59;;;;;;;4.40;2.20;;;;;;;;;;2041319;29;20533;-54
2022/07/10 04:08:00;;;;;;;4.60;2.20;;;;;;;;;;2042337;29;20191;-53
2022/07/10 04:09:00;;;;;;;5.10;2.40;;;;;;;;;;2042138;29;20167;-53
2022/07/10 04:10:01;;;;;;;5.22;2.33;;;;;;;;;;2042502;29;20256;-51
2022/07/10 04:11:01;;;;;;;4.50;2.53;;;;;;;;;;2041409;29;20168;-53
2022/07/10 04:12:02;;;;;;;6.50;2.50;;;;;;;;;;2041488;29;20251;-53
2022/07/10 04:13:02;;;;;;;3.88;2.13;;;;;;;;;;2041779;29;20267;-53
2022/07/10 04:14:03;;;;;;;5.32;2.30;;;;;;;;;;2048395;29;20700;-52
2022/07/10 04:15:04;;;;;;;8.50;3.35;;;;;;;;;;2049220;29;20205;-53
2022/07/10 04:16:04;;;;;;;5.78;2.75;;;;;;;;;;2042010;29;20194;-52
2022/07/10 04:17:04;;;;;;;6.72;2.55;;;;;;;;;;2042084;29;20179;-51
2022/07/10 04:18:05;;;;;;;5.25;2.55;;;;;;;;;;2041995;29;20263;-51
2022/07/10 04:19:05;;;;;;;6.63;2.50;;;;;;;;;;2042233;29;20183;-51
2022/07/10 04:20:06;;;;;;;8.30;2.63;;;;;;;;;;2041194;29;20207;-52
2022/07/10 04:21:06;;;;;;;7.13;2.42;;;;;;;;;;2041512;29;20184;-52
2022/07/10 04:22:06;;;;;;;5.85;2.80;;;;;;;;;;2042126;29;20199;-49
2022/07/10 04:23:07;;;;;;;5.63;2.22;;;;;;;;;;2042208;29;20184;-53
2022/07/10 04:24:07;;;;;;;6.25;2.83;;;;;;;;;;2041249;29;20175;-52
2022/07/10 04:25:08;;;;;;;5.50;2.80;;;;;;;;;;2042072;29;20611;-53
2022/07/10 04:26:08;;;;;;;7.80;2.65;;;;;;;;;;2042128;29;20182;-54
2022/07/10 04:27:08;;;;;;;7.32;2.58;;;;;;;;;;2042043;29;20641;-53
2022/07/10 04:28:09;;;;;;;3.53;2.25;;;;;;;;;;2042165;29;20172;-55
2022/07/10 04:29:09;;;;;;;8.48;2.90;;;;;;;;;;2042002;29;20172;-52
2022/07/10 04:30:10;;;;;;;7.45;2.72;;;;;;;;;;2041803;29;20250;-51
2022/07/10 04:31:10;;;;;;;2.70;2.40;;;;;;;;;;2049395;29;20171;-54
2022/07/10 04:32:11;;;;;;;9.50;3.05;;;;;;;;;;2049156;29;20640;-55
2022/07/10 04:33:11;;;;;;;3.65;2.38;;;;;;;;;;2041890;29;20655;-53
2022/07/10 04:34:11;;;;;;;6.95;2.70;;;;;;;;;;2040923;29;20663;-51
2022/07/10 04:35:12;;;;;;;5.47;2.60;;;;;;;;;;2041954;29;20160;-52
2022/07/10 04:36:12;;;;;;;4.53;2.60;;;;;;;;;;2041778;29;20672;-50
2022/07/10 04:37:12;;;;;;;5.78;2.40;;;;;;;;;;2041831;29;20191;-51
2022/07/10 04:38:13;;;;;;;7.63;2.92;;;;;;;;;;2041130;29;20723;-55
2022/07/10 04:39:13;;;;;;;5.18;2.40;;;;;;;;;;2041726;29;20207;-52
2022/07/10 04:40:14;;;;;;;8.80;2.85;;;;;;;;;;2041795;29;20641;-54
2022/07/10 04:41:14;;;;;;;4.75;2.65;;;;;;;;;;2041823;29;20319;-52
2022/07/10 04:42:15;;;;;;;4.43;2.65;;;;;;;;;;2041892;29;20171;-54
2022/07/10 04:43:15;;;;;;;5.57;2.53;;;;;;;;;;2041762;29;20199;-55
2022/07/10 04:44:15;;;;;;;5.20;2.38;;;;;;;;;;2040992;29;20179;-55
2022/07/10 04:45:16;;;;;;;7.30;2.40;;;;;;;;;;2041812;29;20187;-53
2022/07/10 04:46:16;;;;;;;5.57;2.40;;;;;;;;;;2041401;29;20206;-52
2022/07/10 04:47:16;;;;;;;5.70;2.75;;;;;;;;;;2041494;29;20524;-54
2022/07/10 04:48:17;;;;;;;9.38;2.28;;;;;;;;;;2041736;29;20184;-53
2022/07/10 04:49:17;;;;;;;6.35;2.50;;;;;;;;;;2041726;29;20172;-51
2022/07/10 04:50:18;;;;;;;6.65;2.53;;;;;;;;;;2046215;29;20257;-54
2022/07/10 04:51:18;;;;;;;8.75;2.80;;;;;;;;;;2049635;29;20272;-53
2022/07/10 04:52:18;;;;;;;4.30;2.38;;;;;;;;;;2049927;28;20167;-57
2022/07/10 04:53:19;;;;;;;4.60;2.58;;;;;;;;;;2050077;29;20530;-51
2022/07/10 04:54:19;;;;;;;5.25;2.60;;;;;;;;;;2048914;29;20174;-50
2022/07/10 04:55:21;;;;;;;7.82;3.00;;;;;;;;;;2041328;28;20753;-52
2022/07/10 04:56:21;;;;;;;5.95;2.40;;;;;;;;;;2039423;29;20212;-52
2022/07/10 04:57:22;;;;;;;5.60;2.72;;;;;;;;;;2049292;29;20167;-52
2022/07/10 04:58:23;;;;;;;5.55;2.47;;;;;;;;;;2041746;29;20231;-55
2022/07/10 04:59:23;;;;;;;7.40;2.40;;;;;;;;;;2048965;28;20267;-54
2022/07/10 05:00:23;;;;;;;6.63;2.80;;;;;;;;;;2049199;29;20178;-53
2022/07/10 05:01:23;;;;;;;5.78;2.45;;;;;;;;;;2041826;29;20198;-52
2022/07/10 05:02:24;;;;;;;6.90;2.58;;;;;;;;;;2041966;29;20176;-52
2022/07/10 05:03:24;;;;;;;5.28;2.33;;;;;;;;;;2041672;29;20160;-51
2022/07/10 05:04:24;;;;;;;10.43;2.83;;;;;;;;;;2040592;29;20163;-56
2022/07/10 05:05:25;;;;;;;5.78;2.30;;;;;;;;;;2041677;29;20176;-57
2022/07/10 05:06:25;;;;;;;5.80;2.90;;;;;;;;;;2041990;29;20175;-52
2022/07/10 05:07:25;;;;;;;5.70;2.40;;;;;;;;;;2041552;29;20528;-53
2022/07/10 05:08:25;;;;;;;8.23;2.90;;;;;;;;;;2041716;29;20305;-53
2022/07/10 05:09:26;;;;;;;4.38;2.38;;;;;;;;;;2041468;29;20192;-55
2022/07/10 05:10:27;;;;;;;5.63;2.55;;;;;;;;;;2041852;29;20543;-53
2022/07/10 05:11:27;;;;;;;7.28;2.90;;;;;;;;;;2041647;29;20168;-56
2022/07/10 05:12:27;;;;;;;5.40;2.30;;;;;;;;;;2048842;29;20214;-55
2022/07/10 05:13:28;;;;;;;3.30;2.13;;;;;;;;;;2048838;29;20679;-52
2022/07/10 05:14:28;;;;;;;8.20;2.90;;;;;;;;;;2041382;29;20649;-55
2022/07/10 05:15:28;;;;;;;6.80;2.97;;;;;;;;;;2041587;29;20207;-53
2022/07/10 05:16:29;;;;;;;5.80;2.70;;;;;;;;;;2041751;29;20168;-52
2022/07/10 05:17:29;;;;;;;7.97;3.20;;;;;;;;;;2041768;29;20175;-53
2022/07/10 05:18:30;;;;;;;6.72;2.60;;;;;;;;;;2040361;29;20171;-51
2022/07/10 05:19:30;;;;;;;3.80;2.47;;;;;;;;;;2042050;29;20320;-51
2022/07/10 05:20:30;;;;;;;6.55;2.75;;;;;;;;;;2041784;29;20172;-53
2022/07/10 05:21:31;;;;;;;3.92;2.42;;;;;;;;;;2041632;29;20172;-55
2022/07/10 05:22:31;;;;;;;5.97;3.00;;;;;;;;;;2041515;29;20203;-54
2022/07/10 05:23:31;;;;;;;4.93;2.47;;;;;;;;;;2041545;29;20250;-51
2022/07/10 05:24:32;;;;;;;7.00;2.72;;;;;;;;;;2040625;29;20176;-55
2022/07/10 05:25:32;;;;;;;8.10;2.47;;;;;;;;;;2041813;29;20231;-56
2022/07/10 05:26:33;;;;;;;7.03;2.67;;;;;;;;;;2041976;29;20254;-54
2022/07/10 05:27:33;;;;;;;4.68;2.45;;;;;;;;;;2041703;29;20663;-52
2022/07/10 05:28:33;;;;;;;4.35;2.40;;;;;;;;;;2040530;29;20176;-51
2022/07/10 05:29:34;;;;;;;10.00;2.92;;;;;;;;;;2041541;29;20691;-51
2022/07/10 05:30:34;;;;;;;9.70;2.50;;;;;;;;;;2041720;29;20645;-55
2022/07/10 05:31:34;;;;;;;6.35;2.60;;;;;;;;;;2041894;29;20176;-57
2022/07/10 05:32:41;;;;;;;6.60;2.63;;;;;;;;;;2041684;29;20319;-52
2022/07/10 05:33:43;;;;;;;8.52;3.00;;;;;;;;;;2042215;29;20482;-54
2022/07/10 05:34:43;;;;;;;8.00;3.17;;;;;;;;;;2040956;29;20202;-51
2022/07/10 05:35:43;;;;;;;5.90;2.97;;;;;;;;;;2042229;29;20671;-55
2022/07/10 05:36:44;;;;;;;7.15;2.67;;;;;;;;;;2042267;29;20227;-51
2022/07/10 05:37:44;;;;;;;4.18;2.42;;;;;;;;;;2042304;29;20180;-54
2022/07/10 05:38:45;;;;;;;6.32;2.40;;;;;;;;;;2042331;29;20278;-55
2022/07/10 05:39:45;;;;;;;3.67;2.30;;;;;;;;;;2042496;29;20187;-59
2022/07/10 05:40:45;;;;;;;6.88;2.78;;;;;;;;;;2042303;29;20558;-53
2022/07/10 05:41:45;;;;;;;4.72;2.53;;;;;;;;;;2041989;29;20179;-54
2022/07/10 05:42:46;;;;;;;6.63;2.65;;;;;;;;;;2042442;29;20840;-55
2022/07/10 05:43:46;;;;;;;4.75;2.40;;;;;;;;;;2042272;29;20270;-51
2022/07/10 05:44:47;;;;;;;6.38;2.97;;;;;;;;;;2041031;29;20199;-55
2022/07/10 05:45:47;;;;;;;7.10;2.67;;;;;;;;;;2041937;29;20195;-54
2022/07/10 05:46:47;;;;;;;4.30;2.17;;;;;;;;;;2041526;29;20188;-54
2022/07/10 05:47:47;;;;;;;9.48;2.85;;;;;;;;;;2041269;29;20247;-53
2022/07/10 05:48:48;;;;;;;4.35;2.25;;;;;;;;;;2041505;29;20590;-52
2022/07/10 05:49:48;;;;;;;6.63;2.63;;;;;;;;;;2042042;29;20196;-52
2022/07/10 05:50:48;;;;;;;5.80;2.65;;;;;;;;;;2049628;28;20175;-53
2022/07/10 05:51:49;;;;;;;12.40;2.95;;;;;;;;;;2049364;29;20186;-51
2022/07/10 05:52:49;;;;;;;8.00;2.78;;;;;;;;;;2048811;29;20175;-54
2022/07/10 05:53:49;;;;;;;7.65;2.55;;;;;;;;;;2048601;29;20267;-55
2022/07/10 05:54:50;;;;;;;8.43;2.67;;;;;;;;;;2048361;29;20175;-54
2022/07/10 05:55:51;;;;;;;8.82;2.67;;;;;;;;;;2048372;28;20676;-51
2022/07/10 05:56:51;;;;;;;4.22;2.53;;;;;;;;;;2042421;29;20629;-53
2022/07/10 05:57:51;;;;;;;5.15;2.00;;;;;;;;;;2041299;29;20175;-55
2022/07/10 05:58:55;;;;;;;8.82;2.40;;;;;;;;;;2041484;29;20188;-55
2022/07/10 05:59:55;;;;;;;9.02;2.70;;;;;;;;;;2041184;29;20215;-52
2022/07/10 06:00:56;;;;;;;7.07;2.53;;;;;;;;;;2041609;29;20190;-54
2022/07/10 06:01:56;;;;;;;3.88;2.33;;;;;;;;;;2041273;29;20554;-55
2022/07/10 06:02:56;;;;;;;7.38;2.53;;;;;;;;;;2041411;29;20216;-52
2022/07/10 06:03:57;;;;;;;8.38;2.67;;;;;;;;;;2040892;29;20176;-51
2022/07/10 06:04:57;;;;;;;3.75;2.30;;;;;;;;;;2040831;29;20199;-52
2022/07/10 06:05:59;;;;;;;7.72;2.33;;;;;;;;;;2041024;29;20207;-51
2022/07/10 06:06:59;;;;;;;4.60;2.30;;;;;;;;;;2041463;29;20171;-51
2022/07/10 06:08:00;;;;;;;5.50;2.53;;;;;;;;;;2041342;29;20203;-50